createdAt,value
2023-04-20T00:02:22.035Z,8.27
2023-04-20T00:04:49.121Z,8.57
2023-04-20T00:07:16.796Z,8.00
2023-04-20T00:09:43.900Z,7.77
2023-04-20T00:12:10.988Z,7.65
2023-04-20T00:14:38.009Z,8.57
2023-04-20T00:17:05.587Z,8.30
2023-04-20T00:19:33.407Z,8.47
2023-04-20T00:22:01.040Z,9.00
2023-04-20T00:24:28.061Z,8.43
2023-04-20T00:26:55.401Z,9.43
2023-04-20T00:29:22.538Z,8.60
2023-04-20T00:31:49.740Z,8.77
2023-04-20T00:34:16.780Z,8.70
2023-04-20T00:36:44.426Z,8.87
2023-04-20T00:39:11.448Z,7.90
2023-04-20T00:41:38.616Z,8.90
2023-04-20T00:44:14.026Z,8.57
2023-04-20T00:46:41.969Z,8.73
2023-04-20T00:49:09.623Z,8.00
2023-04-20T00:51:36.943Z,7.87
2023-04-20T00:54:04.802Z,7.63
2023-04-20T00:56:32.062Z,8.20
2023-04-20T00:58:59.190Z,8.63
2023-04-20T01:01:26.312Z,8.00
2023-04-20T01:03:54.376Z,7.87
2023-04-20T01:06:21.525Z,8.13
2023-04-20T01:08:52.149Z,8.27
2023-04-20T01:11:19.306Z,8.43
2023-04-20T01:13:46.330Z,8.07
2023-04-20T01:16:13.681Z,7.80
2023-04-20T01:18:48.434Z,8.38
2023-04-20T01:21:19.744Z,7.00
2023-04-20T01:23:47.219Z,8.10
2023-04-20T01:26:18.308Z,7.97
2023-04-20T01:28:46.232Z,9.40
2023-04-20T01:31:13.870Z,7.57
2023-04-20T01:33:41.559Z,7.83
2023-04-20T01:36:09.527Z,8.30
2023-04-20T01:38:37.250Z,8.03
2023-04-20T01:41:07.145Z,7.90
2023-04-20T01:43:36.108Z,8.80
2023-04-20T01:46:03.271Z,8.30
2023-04-20T01:48:30.312Z,8.03
2023-04-20T01:50:57.406Z,8.93
2023-04-20T01:53:25.318Z,8.77
2023-04-20T01:55:52.392Z,8.87
2023-04-20T01:58:19.384Z,7.97
2023-04-20T02:00:46.455Z,8.67
2023-04-20T02:03:13.739Z,8.27
2023-04-20T02:05:40.890Z,8.27
2023-04-20T02:08:07.912Z,8.43
2023-04-20T02:10:34.946Z,9.13
2023-04-20T02:13:01.913Z,7.63
2023-04-20T02:15:29.130Z,8.37
2023-04-20T02:17:57.431Z,8.63
2023-04-20T02:20:24.738Z,8.80
2023-04-20T02:22:51.832Z,9.17
2023-04-20T02:25:19.020Z,8.63
2023-04-20T02:27:46.047Z,8.97
2023-04-20T02:30:13.605Z,8.23
2023-04-20T02:32:40.882Z,8.57
2023-04-20T02:35:08.939Z,10.80
2023-04-20T02:37:36.172Z,8.57
2023-04-20T02:40:04.908Z,9.20
2023-04-20T02:42:32.004Z,8.70
2023-04-20T02:44:59.049Z,9.27
2023-04-20T02:47:26.056Z,9.00
2023-04-20T02:49:53.063Z,9.73
2023-04-20T02:52:20.227Z,8.90
2023-04-20T02:54:47.357Z,9.13
2023-04-20T02:57:14.425Z,8.90
2023-04-20T02:59:41.562Z,8.97
2023-04-20T03:02:08.666Z,9.10
2023-04-20T03:04:36.877Z,9.27
2023-04-20T03:07:04.932Z,7.77
2023-04-20T03:09:32.020Z,8.07
2023-04-20T03:11:59.032Z,9.40
2023-04-20T03:14:26.146Z,8.97
2023-04-20T03:16:53.341Z,9.13
2023-04-20T03:19:20.515Z,9.27
2023-04-20T03:21:47.534Z,9.00
2023-04-20T03:24:14.673Z,9.83
2023-04-20T03:26:42.079Z,8.67
2023-04-20T03:29:09.086Z,9.40
2023-04-20T03:31:36.182Z,9.27
2023-04-20T03:34:03.343Z,8.70
2023-04-20T03:36:30.370Z,9.27
2023-04-20T03:38:57.347Z,8.80
2023-04-20T03:41:24.376Z,9.70
2023-04-20T03:43:51.378Z,9.17
2023-04-20T03:46:18.668Z,9.73
2023-04-20T03:48:45.852Z,9.30
2023-04-20T03:51:12.848Z,9.00
2023-04-20T03:53:40.726Z,9.27
2023-04-20T03:56:07.971Z,9.90
2023-04-20T03:58:35.023Z,9.70
2023-04-20T04:01:07.089Z,9.83
2023-04-20T04:03:35.939Z,9.60
2023-04-20T04:06:03.878Z,8.87
2023-04-20T04:08:32.272Z,9.50
2023-04-20T04:11:00.742Z,9.83
2023-04-20T04:13:27.805Z,10.03
2023-04-20T04:15:54.842Z,9.90
2023-04-20T04:18:22.451Z,9.57
2023-04-20T04:20:49.488Z,10.60
2023-04-20T04:23:16.640Z,9.13
2023-04-20T04:25:43.662Z,10.40
2023-04-20T04:28:10.752Z,9.50
2023-04-20T04:30:37.823Z,9.47
2023-04-20T04:33:05.148Z,10.53
2023-04-20T04:35:33.450Z,11.07
2023-04-20T04:38:01.072Z,9.63
2023-04-20T04:40:28.131Z,9.67
2023-04-20T04:42:55.712Z,9.23
2023-04-20T04:45:25.400Z,11.40
2023-04-20T04:47:53.981Z,9.13
2023-04-20T04:50:22.147Z,10.80
2023-04-20T04:52:49.289Z,10.10
2023-04-20T04:55:16.736Z,9.60
2023-04-20T04:57:43.935Z,9.57
2023-04-20T05:00:12.647Z,9.43
2023-04-20T05:02:40.309Z,9.27
2023-04-20T05:05:10.030Z,9.90
2023-04-20T05:07:38.605Z,9.77
2023-04-20T05:10:07.483Z,9.90
2023-04-20T05:12:34.777Z,11.20
2023-04-20T05:15:01.894Z,11.00
2023-04-20T05:17:28.981Z,10.80
2023-04-20T05:19:55.994Z,9.57
2023-04-20T05:22:23.129Z,10.10
2023-04-20T05:24:50.215Z,9.63
2023-04-20T05:27:17.263Z,9.43
2023-04-20T05:29:44.249Z,9.55
2023-04-20T05:32:11.488Z,9.13
2023-04-20T05:34:38.475Z,10.73
2023-04-20T05:37:06.261Z,10.25
2023-04-20T05:39:33.397Z,9.98
2023-04-20T05:42:00.389Z,9.55
2023-04-20T05:44:27.384Z,9.25
2023-04-20T05:46:54.399Z,8.73
2023-04-20T05:49:21.450Z,9.20
2023-04-20T05:51:48.498Z,9.30
2023-04-20T05:54:15.712Z,10.38
2023-04-20T05:56:42.674Z,9.10
2023-04-20T05:59:10.143Z,9.15
2023-04-20T06:01:37.175Z,8.73
2023-04-20T06:04:04.358Z,8.65
2023-04-20T06:06:31.590Z,10.43
2023-04-20T06:08:59.426Z,8.65
2023-04-20T06:11:26.439Z,9.07
2023-04-20T06:13:53.438Z,8.45
2023-04-20T06:16:20.669Z,8.75
2023-04-20T06:18:47.690Z,7.93
2023-04-20T06:21:16.079Z,8.23
2023-04-20T06:23:44.499Z,7.45
2023-04-20T06:26:11.798Z,8.13
2023-04-20T06:28:38.956Z,8.10
2023-04-20T06:31:06.536Z,7.85
2023-04-20T06:33:33.625Z,8.00
2023-04-20T06:36:00.632Z,7.15
2023-04-20T06:38:27.650Z,7.13
2023-04-20T06:40:54.700Z,7.78
2023-04-20T06:43:21.681Z,7.75
2023-04-20T06:45:48.675Z,7.43
2023-04-20T06:48:30.762Z,7.50
2023-04-20T06:50:58.928Z,7.90
2023-04-20T06:53:26.280Z,6.60
2023-04-20T06:55:56.558Z,7.47
2023-04-20T06:58:23.547Z,8.35
2023-04-20T07:00:50.582Z,6.93
2023-04-20T07:03:19.172Z,7.55
2023-04-20T07:05:46.798Z,6.25
2023-04-20T07:08:15.982Z,6.88
2023-04-20T07:10:43.302Z,7.22
2023-04-20T07:13:10.299Z,6.60
2023-04-20T07:15:37.455Z,6.63
2023-04-20T07:18:04.508Z,6.65
2023-04-20T07:20:31.897Z,6.57
2023-04-20T07:22:58.956Z,6.63
2023-04-20T07:25:26.003Z,5.95
2023-04-20T07:27:53.061Z,5.93
2023-04-20T07:30:20.162Z,6.80
2023-04-20T07:32:47.183Z,6.03
2023-04-20T07:35:14.251Z,5.70
2023-04-20T07:37:41.473Z,6.07
2023-04-20T07:40:09.833Z,5.70
2023-04-20T07:42:37.480Z,6.22
2023-04-20T07:45:06.449Z,6.75
2023-04-20T07:47:37.232Z,6.18
2023-04-20T07:50:06.515Z,5.45
2023-04-20T07:52:33.864Z,5.35
2023-04-20T07:55:00.918Z,5.82
2023-04-20T07:57:29.090Z,5.68
2023-04-20T07:59:56.152Z,6.20
2023-04-20T08:02:23.313Z,5.20
2023-04-20T08:04:50.913Z,4.53
2023-04-20T08:07:18.110Z,5.40
2023-04-20T08:09:45.169Z,4.63
2023-04-20T08:12:12.284Z,5.22
2023-04-20T08:14:41.314Z,4.47
2023-04-20T08:17:08.605Z,5.78
2023-04-20T08:19:36.341Z,5.63
2023-04-20T08:22:04.571Z,5.07
2023-04-20T08:24:32.013Z,3.80
2023-04-20T08:26:59.425Z,4.20
2023-04-20T08:29:26.573Z,5.22
2023-04-20T08:31:53.748Z,5.05
2023-04-20T08:34:20.806Z,5.30
2023-04-20T08:36:48.065Z,5.80
2023-04-20T08:39:21.799Z,6.18
2023-04-20T08:41:53.963Z,4.68
2023-04-20T08:44:21.570Z,4.90
2023-04-20T08:46:50.095Z,4.88
2023-04-20T08:49:19.324Z,4.28
2023-04-20T08:51:48.023Z,4.40
2023-04-20T08:54:15.897Z,4.25
2023-04-20T08:56:46.290Z,4.38
2023-04-20T08:59:14.688Z,4.30
2023-04-20T09:01:43.158Z,4.43
2023-04-20T09:04:21.660Z,3.42
2023-04-20T09:06:51.369Z,4.38
2023-04-20T09:09:20.812Z,4.75
2023-04-20T09:11:48.740Z,4.30
2023-04-20T09:14:18.356Z,3.40
2023-04-20T09:16:53.448Z,3.95
2023-04-20T09:19:30.852Z,3.97
2023-04-20T09:22:03.916Z,3.97
2023-04-20T09:24:33.687Z,3.90
2023-04-20T09:27:02.799Z,3.72
2023-04-20T09:29:30.414Z,3.55
2023-04-20T09:31:57.639Z,3.35
2023-04-20T09:34:24.878Z,4.05
2023-04-20T09:36:55.549Z,3.58
2023-04-20T09:39:24.523Z,4.40
2023-04-20T09:41:52.714Z,5.53
2023-04-20T09:44:20.279Z,3.63
2023-04-20T09:46:47.432Z,3.90
2023-04-20T09:49:15.227Z,5.05
2023-04-20T09:51:45.435Z,4.05
2023-04-20T09:54:15.003Z,2.88
2023-04-20T09:56:42.197Z,3.60
2023-04-20T09:59:09.327Z,2.78
2023-04-20T10:01:38.210Z,3.92
2023-04-20T10:04:14.754Z,2.67
2023-04-20T10:06:55.022Z,3.97
2023-04-20T10:09:28.613Z,3.50
2023-04-20T10:12:09.956Z,3.97
2023-04-20T10:14:37.004Z,3.40
2023-04-20T10:17:09.353Z,2.70
2023-04-20T10:19:44.732Z,2.67
2023-04-20T10:22:25.140Z,2.80
2023-04-20T10:24:52.196Z,2.90
2023-04-20T10:27:23.010Z,2.78
2023-04-20T10:29:50.196Z,2.58
2023-04-20T10:32:28.795Z,2.63
2023-04-20T10:35:08.754Z,2.92
2023-04-20T10:37:46.653Z,2.70
2023-04-20T10:40:13.879Z,3.17
2023-04-20T10:42:46.968Z,3.08
2023-04-20T10:45:14.035Z,3.28
2023-04-20T10:47:41.192Z,3.72
2023-04-20T10:50:09.364Z,3.83
2023-04-20T10:52:38.697Z,3.72
2023-04-20T10:55:08.451Z,2.65
2023-04-20T10:57:36.672Z,2.72
2023-04-20T11:00:26.222Z,2.40
2023-04-20T11:02:56.630Z,3.58
2023-04-20T11:05:27.370Z,4.03
2023-04-20T11:07:59.026Z,3.40
2023-04-20T11:10:42.658Z,2.70
2023-04-20T11:13:30.899Z,2.95
2023-04-20T11:15:58.074Z,3.38
2023-04-20T11:18:25.131Z,3.90
2023-04-20T11:20:54.241Z,3.53
2023-04-20T11:23:23.422Z,3.60
2023-04-20T11:25:56.454Z,3.45
2023-04-20T11:28:23.913Z,3.55
2023-04-20T11:30:51.292Z,3.40
2023-04-20T11:33:29.965Z,2.53
2023-04-20T11:36:01.884Z,3.13
2023-04-20T11:38:34.448Z,3.63
2023-04-20T11:41:04.773Z,2.60
2023-04-20T11:43:32.580Z,3.17
2023-04-20T11:46:02.981Z,3.00
2023-04-20T11:48:33.444Z,3.03
2023-04-20T11:51:00.487Z,3.28
2023-04-20T11:53:27.462Z,3.63
2023-04-20T11:55:54.465Z,2.90
2023-04-20T11:58:21.445Z,3.20
2023-04-20T12:00:48.848Z,3.42
2023-04-20T12:03:15.981Z,3.20
2023-04-20T12:05:43.342Z,3.45
2023-04-20T12:08:10.515Z,2.83
2023-04-20T12:10:37.565Z,3.42
2023-04-20T12:13:04.671Z,2.78
2023-04-20T12:15:32.166Z,3.28
2023-04-20T12:17:59.264Z,3.35
2023-04-20T12:20:26.359Z,2.80
2023-04-20T12:22:53.444Z,3.72
2023-04-20T12:25:20.624Z,2.90
2023-04-20T12:27:49.424Z,3.40
2023-04-20T12:30:16.999Z,2.83
2023-04-20T12:32:43.977Z,3.30
2023-04-20T12:35:10.976Z,3.33
2023-04-20T12:37:38.084Z,2.95
2023-04-20T12:40:07.160Z,3.60
2023-04-20T12:42:34.203Z,3.88
2023-04-20T12:45:01.503Z,3.90
2023-04-20T12:47:28.528Z,2.78
2023-04-20T12:49:56.289Z,3.13
2023-04-20T12:52:23.378Z,3.38
2023-04-20T12:54:50.535Z,3.35
2023-04-20T12:57:17.530Z,3.28
2023-04-20T12:59:44.549Z,3.58
2023-04-20T13:02:12.152Z,3.58
2023-04-20T13:04:39.308Z,3.85
2023-04-20T13:07:07.136Z,3.22
2023-04-20T13:09:34.263Z,3.70
2023-04-20T13:12:01.368Z,3.80
2023-04-20T13:14:28.371Z,3.30
2023-04-20T13:16:55.785Z,3.40
2023-04-20T13:19:22.993Z,3.67
2023-04-20T13:21:49.970Z,3.03
2023-04-20T13:24:17.227Z,3.38
2023-04-20T13:26:44.421Z,2.95
2023-04-20T13:29:11.643Z,3.28
2023-04-20T13:31:38.892Z,3.30
2023-04-20T13:34:06.146Z,4.50
2023-04-20T13:36:33.278Z,3.40
2023-04-20T13:39:01.211Z,3.70
2023-04-20T13:41:28.173Z,3.15
2023-04-20T13:43:56.499Z,3.33
2023-04-20T13:46:23.642Z,3.50
2023-04-20T13:48:50.832Z,3.20
2023-04-20T13:51:17.824Z,4.18
2023-04-20T13:53:44.966Z,3.40
2023-04-20T13:56:11.940Z,4.05
2023-04-20T13:58:38.950Z,3.75
2023-04-20T14:01:11.008Z,3.65
2023-04-20T14:03:38.311Z,3.35
2023-04-20T14:06:05.997Z,4.03
2023-04-20T14:08:32.954Z,3.72
2023-04-20T14:11:00.013Z,3.40
2023-04-20T14:13:27.039Z,3.40
2023-04-20T14:15:54.470Z,3.88
2023-04-20T14:18:21.641Z,3.75
2023-04-20T14:20:52.298Z,3.30
2023-04-20T14:23:19.781Z,3.53
2023-04-20T14:25:46.856Z,3.60
2023-04-20T14:28:17.782Z,3.08
2023-04-20T14:30:45.987Z,3.65
2023-04-20T14:33:13.308Z,4.03
2023-04-20T14:35:40.651Z,4.07
2023-04-20T14:38:07.606Z,3.28
2023-04-20T14:40:34.679Z,3.60
2023-04-20T14:43:01.769Z,4.07
2023-04-20T14:45:29.107Z,3.60
2023-04-20T14:47:59.248Z,3.80
2023-04-20T14:50:27.648Z,4.00
2023-04-20T14:52:55.733Z,3.88
2023-04-20T14:55:25.678Z,3.90
2023-04-20T14:57:57.647Z,4.53
2023-04-20T15:00:27.813Z,4.13
2023-04-20T15:02:59.655Z,3.90
2023-04-20T15:05:28.579Z,4.63
2023-04-20T15:07:57.717Z,3.78
2023-04-20T15:10:25.096Z,4.03
2023-04-20T15:12:52.199Z,4.35
2023-04-20T15:15:19.348Z,4.57
2023-04-20T15:17:47.015Z,4.13
2023-04-20T15:20:17.121Z,3.63
2023-04-20T15:22:44.199Z,4.53
2023-04-20T15:25:11.632Z,4.43
2023-04-20T15:27:38.976Z,4.60
2023-04-20T15:30:07.573Z,4.47
2023-04-20T15:32:34.804Z,4.28
2023-04-20T15:35:02.168Z,4.50
2023-04-20T15:37:29.264Z,4.40
2023-04-20T15:39:56.284Z,4.38
2023-04-20T15:42:23.528Z,4.50
2023-04-20T15:44:50.589Z,4.55
2023-04-20T15:47:17.612Z,5.07
2023-04-20T15:49:44.669Z,4.57
2023-04-20T15:52:11.712Z,4.57
2023-04-20T15:54:39.002Z,4.30
2023-04-20T15:57:06.110Z,4.22
2023-04-20T15:59:33.289Z,5.30
2023-04-20T16:02:00.391Z,5.10
2023-04-20T16:04:27.566Z,4.88
2023-04-20T16:06:55.205Z,5.05
2023-04-20T16:09:23.750Z,4.63
2023-04-20T16:11:51.140Z,4.53
2023-04-20T16:14:18.454Z,4.78
2023-04-20T16:16:45.793Z,4.80
2023-04-20T16:19:14.582Z,4.50
2023-04-20T16:21:41.699Z,5.53
2023-04-20T16:24:08.736Z,5.05
2023-04-20T16:26:36.213Z,4.97
2023-04-20T16:29:03.621Z,4.93
2023-04-20T16:31:31.134Z,5.47
2023-04-20T16:33:58.952Z,6.07
2023-04-20T16:36:27.095Z,5.15
2023-04-20T16:38:54.093Z,5.50
2023-04-20T16:41:21.741Z,5.57
2023-04-20T16:43:48.778Z,5.28
2023-04-20T16:46:22.194Z,5.38
2023-04-20T16:48:50.870Z,5.80
2023-04-20T16:51:17.937Z,5.43
2023-04-20T16:53:45.458Z,6.05
2023-04-20T16:56:12.804Z,5.28
2023-04-20T16:58:39.775Z,6.07
2023-04-20T17:01:07.821Z,5.43
2023-04-20T17:03:35.153Z,5.60
2023-04-20T17:06:07.409Z,6.30
2023-04-20T17:08:34.760Z,6.20
2023-04-20T17:11:01.997Z,5.95
2023-04-20T17:13:28.994Z,5.43
2023-04-20T17:15:56.436Z,5.88
2023-04-20T17:18:23.538Z,5.45
2023-04-20T17:20:50.734Z,5.90
2023-04-20T17:23:18.284Z,5.75
2023-04-20T17:25:47.364Z,6.65
2023-04-20T17:28:14.762Z,6.63
2023-04-20T17:30:42.099Z,6.38
2023-04-20T17:33:12.522Z,7.55
2023-04-20T17:35:39.774Z,6.35
2023-04-20T17:38:06.852Z,7.28
2023-04-20T17:40:34.256Z,7.38
2023-04-20T17:43:02.306Z,7.05
2023-04-20T17:45:29.386Z,6.72
2023-04-20T17:47:56.550Z,6.70
2023-04-20T17:50:23.852Z,6.65
2023-04-20T17:52:51.711Z,6.32
2023-04-20T17:55:18.960Z,6.45
2023-04-20T17:57:45.987Z,7.10
2023-04-20T18:00:13.986Z,6.95
2023-04-20T18:02:41.185Z,7.18
2023-04-20T18:05:08.737Z,7.03
2023-04-20T18:07:35.844Z,7.15
2023-04-20T18:10:03.994Z,7.55
2023-04-20T18:12:30.966Z,7.28
2023-04-20T18:15:01.399Z,7.35
2023-04-20T18:17:28.568Z,7.55
2023-04-20T18:19:55.640Z,7.75
2023-04-20T18:22:24.244Z,7.55
2023-04-20T18:24:51.929Z,7.45
2023-04-20T18:27:19.089Z,6.95
2023-04-20T18:29:46.455Z,7.93
2023-04-20T18:32:16.391Z,7.82
2023-04-20T18:34:44.043Z,7.95
2023-04-20T18:37:15.002Z,8.10
2023-04-20T18:39:42.119Z,8.00
2023-04-20T18:42:09.361Z,7.30
2023-04-20T18:44:36.462Z,7.57
2023-04-20T18:47:03.505Z,8.27
2023-04-20T18:49:30.814Z,8.05
2023-04-20T18:51:57.827Z,7.22
2023-04-20T18:54:24.776Z,7.90
2023-04-20T18:56:51.884Z,8.15
2023-04-20T18:59:18.949Z,7.80
2023-04-20T19:01:46.041Z,7.65
2023-04-20T19:04:13.108Z,8.27
2023-04-20T19:06:40.317Z,8.55
2023-04-20T19:09:08.384Z,8.55
2023-04-20T19:11:35.520Z,8.10
2023-04-20T19:14:02.787Z,8.55
2023-04-20T19:16:31.567Z,8.25
2023-04-20T19:18:59.164Z,7.88
2023-04-20T19:21:27.073Z,8.63
2023-04-20T19:23:54.107Z,8.18
2023-04-20T19:26:21.436Z,8.23
2023-04-20T19:28:48.500Z,8.10
2023-04-20T19:31:16.030Z,7.97
2023-04-20T19:33:43.130Z,7.95
2023-04-20T19:36:10.270Z,8.48
2023-04-20T19:38:37.533Z,9.35
2023-04-20T19:41:06.354Z,8.43
2023-04-20T19:43:33.588Z,8.80
2023-04-20T19:46:00.875Z,8.60
2023-04-20T19:48:27.958Z,9.20
2023-04-20T19:50:59.274Z,9.30
2023-04-20T19:53:27.107Z,8.95
2023-04-20T19:55:54.288Z,11.13
2023-04-20T19:58:21.456Z,9.85
2023-04-20T20:00:48.632Z,9.05
2023-04-20T20:03:16.166Z,8.80
2023-04-20T20:05:43.882Z,9.38
2023-04-20T20:08:11.914Z,8.93
2023-04-20T20:10:39.056Z,9.52
2023-04-20T20:13:06.390Z,8.95
2023-04-20T20:15:33.461Z,8.65
2023-04-20T20:18:00.839Z,8.82
2023-04-20T20:20:30.480Z,8.20
2023-04-20T20:22:58.959Z,8.02
2023-04-20T20:25:26.546Z,9.07
2023-04-20T20:27:53.722Z,9.15
2023-04-20T20:30:20.767Z,9.20
2023-04-20T20:32:48.468Z,9.15
2023-04-20T20:35:16.514Z,8.80
2023-04-20T20:37:45.381Z,9.70
2023-04-20T20:40:16.613Z,9.05
2023-04-20T20:42:45.225Z,8.98
2023-04-20T20:45:13.905Z,9.75
2023-04-20T20:47:44.163Z,9.27
2023-04-20T20:50:16.281Z,8.38
2023-04-20T20:52:43.360Z,9.07
2023-04-20T20:55:10.722Z,9.18
2023-04-20T20:57:38.034Z,9.70
2023-04-20T21:00:09.878Z,9.27
2023-04-20T21:02:37.707Z,9.77
2023-04-20T21:05:05.921Z,9.02
2023-04-20T21:07:33.036Z,10.43
2023-04-20T21:10:00.199Z,10.00
2023-04-20T21:12:27.186Z,9.30
2023-04-20T21:14:54.393Z,9.75
2023-04-20T21:17:21.454Z,9.57
2023-04-20T21:19:48.474Z,9.95
2023-04-20T21:22:15.515Z,9.98
2023-04-20T21:24:42.504Z,9.73
2023-04-20T21:27:09.978Z,9.02
2023-04-20T21:29:37.020Z,9.88
2023-04-20T21:32:04.456Z,9.05
2023-04-20T21:34:31.723Z,9.20
2023-04-20T21:37:04.078Z,9.27
2023-04-20T21:39:32.232Z,8.93
2023-04-20T21:41:59.851Z,10.05
2023-04-20T21:44:27.332Z,9.52
2023-04-20T21:46:54.375Z,9.43
2023-04-20T21:49:21.989Z,8.95
2023-04-20T21:51:49.241Z,9.45
2023-04-20T21:54:16.294Z,9.38
2023-04-20T21:56:43.354Z,9.68
2023-04-20T21:59:10.348Z,8.75
2023-04-20T22:01:37.415Z,9.32
2023-04-20T22:04:04.794Z,9.50
2023-04-20T22:06:32.736Z,9.02
2023-04-20T22:08:59.918Z,10.60
2023-04-20T22:11:26.902Z,9.38
2023-04-20T22:13:54.058Z,9.05
2023-04-20T22:16:21.928Z,9.60
2023-04-20T22:18:49.222Z,9.68
2023-04-20T22:21:16.337Z,10.40
2023-04-20T22:23:43.307Z,9.18
2023-04-20T22:26:10.617Z,9.32
2023-04-20T22:28:37.626Z,9.43
2023-04-20T22:31:04.913Z,9.48
2023-04-20T22:33:31.916Z,10.38
2023-04-20T22:35:58.978Z,9.18
2023-04-20T22:38:26.059Z,9.90
2023-04-20T22:40:53.759Z,9.75
2023-04-20T22:43:21.635Z,9.05
2023-04-20T22:45:48.871Z,10.15
2023-04-20T22:48:15.977Z,9.40
2023-04-20T22:50:43.376Z,9.57
2023-04-20T22:53:10.395Z,9.52
2023-04-20T22:55:37.362Z,9.90
2023-04-20T22:58:04.457Z,9.10
2023-04-20T23:00:31.504Z,9.25
2023-04-20T23:02:58.611Z,9.63
2023-04-20T23:05:26.554Z,9.25
2023-04-20T23:07:54.002Z,8.82
2023-04-20T23:10:21.292Z,9.60
2023-04-20T23:12:49.641Z,9.85
2023-04-20T23:15:16.694Z,9.25
2023-04-20T23:17:43.782Z,9.55
2023-04-20T23:20:13.726Z,9.55
2023-04-20T23:22:41.037Z,9.20
2023-04-20T23:25:09.928Z,8.70
2023-04-20T23:27:37.136Z,9.50
2023-04-20T23:30:04.783Z,9.50
2023-04-20T23:32:31.910Z,8.82
2023-04-20T23:34:59.012Z,8.35
2023-04-20T23:37:26.006Z,9.65
2023-04-20T23:39:53.006Z,9.07
2023-04-20T23:42:19.959Z,8.82
2023-04-20T23:44:46.922Z,8.95
2023-04-20T23:47:15.531Z,9.50
2023-04-20T23:49:42.574Z,9.10
2023-04-20T23:52:09.582Z,9.15
2023-04-20T23:54:36.554Z,8.52
2023-04-20T23:57:03.530Z,8.75
2023-04-20T23:59:31.277Z,9.40
